createdAt,value
2023-01-10T00:02:06.853Z,96589.19
2023-01-10T00:50:29.371Z,96655.00
2023-01-10T00:52:55.865Z,96655.91
2023-01-10T00:55:22.433Z,96654.91
2023-01-10T01:24:10.617Z,96706.56
2023-01-10T01:26:37.235Z,96716.34
2023-01-10T01:29:10.254Z,96719.88
2023-01-10T01:31:42.650Z,96723.41
2023-01-10T01:45:47.500Z,96758.47
2023-01-10T02:04:22.287Z,96774.72
2023-01-10T02:18:39.331Z,96796.06
2023-01-10T03:46:42.016Z,96932.22
2023-01-10T03:49:11.004Z,96933.28
2023-01-10T03:51:44.500Z,96935.97
2023-01-10T03:54:12.160Z,96944.47
2023-01-10T03:57:08.167Z,96940.94
2023-01-10T03:59:34.743Z,96949.63
2023-01-10T04:02:01.405Z,96952.22
2023-01-10T04:05:20.399Z,96964.22
2023-01-10T04:26:28.725Z,97005.63
2023-01-10T04:28:55.216Z,96997.78
2023-01-10T04:31:40.371Z,96996.97
2023-01-10T04:34:08.396Z,97012.59
2023-01-10T04:36:37.722Z,97005.63
2023-01-10T04:39:05.179Z,97013.53
2023-01-10T04:41:32.076Z,97024.94
2023-01-10T04:43:58.664Z,97035.59
2023-01-10T04:46:25.200Z,97042.50
2023-01-10T04:48:58.425Z,97045.22
2023-01-10T05:24:09.320Z,97101.66
2023-01-10T05:26:35.846Z,97105.06
2023-01-10T05:29:02.355Z,97116.41
2023-01-10T05:31:29.015Z,97123.50
2023-01-10T05:33:55.569Z,97121.81
2023-01-10T05:36:44.015Z,97121.06
2023-01-10T05:39:21.006Z,97132.50
2023-01-10T05:42:05.849Z,97143.84
2023-01-10T05:44:34.912Z,97146.47
2023-01-10T05:47:08.515Z,97154.22
2023-01-10T05:49:37.100Z,97151.59
2023-01-10T06:06:45.880Z,97191.53
2023-01-10T06:09:12.356Z,97197.53
2023-01-10T06:27:47.433Z,97220.88
2023-01-10T06:38:04.903Z,97237.31
2023-01-10T06:40:41.594Z,97242.53
2023-01-10T06:43:25.766Z,97256.53
2023-01-10T06:45:57.259Z,97257.50
2023-01-10T06:48:23.786Z,97260.69
2023-01-10T06:50:50.308Z,97258.63
2023-01-10T06:58:04.226Z,97273.66
2023-01-10T07:00:31.383Z,97277.31
2023-01-10T07:06:53.218Z,97297.34
2023-01-10T07:09:19.836Z,97301.63
2023-01-10T07:15:33.674Z,97319.75
2023-01-10T07:21:53.521Z,97333.63
2023-01-10T07:24:20.143Z,97331.09
2023-01-10T07:34:52.203Z,97355.09
2023-01-10T07:37:18.805Z,97359.56
2023-01-10T07:43:33.364Z,97371.25
2023-01-10T07:46:01.367Z,97378.19
2023-01-10T07:52:15.556Z,97374.63
2023-01-10T07:54:42.085Z,97385.91
2023-01-10T08:04:40.175Z,97395.72
2023-01-10T08:07:06.684Z,97401.63
2023-01-10T08:17:24.207Z,97426.31
2023-01-10T08:19:50.853Z,97433.16
2023-01-10T08:22:17.379Z,97435.50
2023-01-10T08:28:32.007Z,97440.25
2023-01-10T08:30:58.683Z,97441.00
2023-01-10T08:37:19.308Z,97456.31
2023-01-10T08:47:39.026Z,97477.63
2023-01-10T08:50:07.916Z,97481.63
2023-01-10T09:00:13.210Z,97507.75
2023-01-10T09:02:40.598Z,97513.34
2023-01-10T09:12:44.185Z,97526.09
2023-01-10T09:18:55.882Z,97542.13
2023-01-10T09:21:23.666Z,97542.38
2023-01-10T09:27:37.592Z,97564.81
2023-01-10T09:30:04.945Z,97564.00
2023-01-10T09:36:32.931Z,97585.56
2023-01-10T09:38:59.535Z,97590.78
2023-01-10T09:45:41.266Z,97595.44
2023-01-10T09:54:11.304Z,97601.44
2023-01-10T09:55:39.625Z,97589.72
2023-01-10T10:09:05.037Z,97604.03
2023-01-10T10:11:48.036Z,97611.78
2023-01-10T10:14:52.994Z,97611.97
2023-01-10T10:17:43.207Z,97611.50
2023-01-10T10:20:38.459Z,97602.13
2023-01-10T10:23:34.025Z,97599.09
2023-01-10T10:45:45.324Z,97615.94
2023-01-10T10:48:22.467Z,97626.53
2023-01-10T10:55:22.204Z,97630.06
2023-01-10T10:57:59.894Z,97628.19
2023-01-10T11:04:18.787Z,97627.28
2023-01-10T11:10:49.696Z,97630.31
2023-01-10T11:13:34.628Z,97637.13
2023-01-10T11:35:29.125Z,97655.31
2023-01-10T11:38:01.147Z,97641.44
2023-01-10T11:47:45.727Z,97640.91
2023-01-10T11:50:17.933Z,97652.31
2023-01-10T12:07:56.735Z,97671.22
2023-01-10T12:39:53.286Z,97697.16
2023-01-10T12:47:13.565Z,97712.09
2023-01-10T12:54:01.048Z,97709.09
2023-01-10T13:00:47.800Z,97718.09
2023-01-10T13:03:33.103Z,97717.97
2023-01-10T13:10:10.211Z,97719.00
2023-01-10T13:12:45.602Z,97728.31
2023-01-10T13:25:38.025Z,97721.75
2023-01-10T13:28:18.874Z,97731.03
2023-01-10T13:34:40.314Z,97733.78
2023-01-10T13:40:39.795Z,97731.06
2023-01-10T13:43:33.652Z,97733.09
2023-01-10T13:46:19.922Z,97723.59
2023-01-10T13:49:19.533Z,97733.03
2023-01-10T13:52:36.438Z,97741.34
2023-01-10T13:55:34.974Z,97743.69
2023-01-10T13:58:16.226Z,97752.88
2023-01-10T14:01:09.145Z,97753.31
2023-01-10T14:04:16.135Z,97761.31
2023-01-10T14:09:50.807Z,97768.56
2023-01-10T14:12:51.625Z,97769.25
2023-01-10T14:15:56.516Z,97774.41
2023-01-10T14:18:41.631Z,97775.59
2023-01-10T14:21:16.268Z,97770.59
2023-01-10T14:27:17.133Z,97778.16
2023-01-10T14:30:33.539Z,97780.22
2023-01-10T14:43:55.429Z,97799.34
2023-01-10T15:07:48.180Z,97802.31
2023-01-10T15:14:03.535Z,97801.94
2023-01-10T15:20:17.932Z,97798.91
2023-01-10T15:34:14.274Z,97784.22
2023-01-10T15:37:40.676Z,97779.22
2023-01-10T15:40:49.635Z,97779.38
2023-01-10T15:51:36.887Z,97770.09
2023-01-10T15:55:31.661Z,97760.75
2023-01-10T16:01:33.096Z,97775.63
2023-01-10T16:04:03.727Z,97776.53
2023-01-10T16:06:35.712Z,97772.25
2023-01-10T16:09:08.198Z,97783.53
2023-01-10T16:11:53.051Z,97775.81
2023-01-10T16:14:19.583Z,97768.94
2023-01-10T16:16:46.117Z,97765.47
2023-01-10T16:19:14.630Z,97770.78
2023-01-10T16:22:02.891Z,97772.81
2023-01-10T16:24:31.893Z,97774.47
2023-01-10T16:27:03.037Z,97773.69
2023-01-10T16:29:29.736Z,97782.41
2023-01-10T16:31:56.429Z,97773.81
2023-01-10T16:34:24.377Z,97780.75
2023-01-10T16:36:50.946Z,97775.72
2023-01-10T16:39:20.149Z,97777.56
2023-01-10T16:42:05.513Z,97775.84
2023-01-10T16:44:33.259Z,97770.81
2023-01-10T16:47:00.885Z,97772.94
2023-01-10T16:49:27.539Z,97763.69
2023-01-10T16:51:55.296Z,97770.97
2023-01-10T16:54:25.315Z,97765.25
2023-01-10T16:56:51.887Z,97761.22
2023-01-10T16:59:18.527Z,97759.63
2023-01-10T17:01:56.876Z,97765.03
2023-01-10T17:04:32.655Z,97766.09
2023-01-10T17:06:59.397Z,97765.41
2023-01-10T17:09:29.452Z,97761.94
2023-01-10T17:12:02.923Z,97754.09
2023-01-10T17:14:31.646Z,97761.16
2023-01-10T17:16:58.213Z,97761.28
2023-01-10T17:19:25.294Z,97756.22
2023-01-10T17:21:52.560Z,97753.72
2023-01-10T17:24:19.254Z,97761.69
2023-01-10T17:26:45.752Z,97753.25
2023-01-10T17:29:12.276Z,97754.41
2023-01-10T17:31:38.793Z,97759.66
2023-01-10T17:34:05.488Z,97765.00
2023-01-10T17:36:38.486Z,97762.34
2023-01-10T17:39:06.217Z,97766.88
2023-01-10T17:41:33.229Z,97759.31
2023-01-10T17:44:00.005Z,97752.44
2023-01-10T17:46:26.468Z,97753.50
2023-01-10T17:48:53.033Z,97756.19
2023-01-10T17:51:19.609Z,97753.63
2023-01-10T17:53:46.129Z,97752.06
2023-01-10T17:56:13.243Z,97767.88
2023-01-10T17:58:39.854Z,97770.72
2023-01-10T18:01:06.520Z,97770.97
2023-01-10T18:03:33.113Z,97764.03
2023-01-10T18:05:59.725Z,97764.03
2023-01-10T18:08:26.972Z,97759.88
2023-01-10T18:11:00.126Z,97758.38
2023-01-10T18:13:33.150Z,97757.78
2023-01-10T18:16:01.013Z,97766.66
2023-01-10T18:18:28.413Z,97767.69
2023-01-10T18:20:57.673Z,97768.69
2023-01-10T18:23:26.688Z,97767.19
2023-01-10T18:26:01.172Z,97770.81
2023-01-10T18:28:41.708Z,97766.56
2023-01-10T18:31:16.080Z,97765.91
2023-01-10T18:33:43.880Z,97761.72
2023-01-10T18:36:15.091Z,97765.31
2023-01-10T18:38:42.426Z,97771.41
2023-01-10T18:41:09.143Z,97764.59
2023-01-10T18:43:35.612Z,97764.63
2023-01-10T18:46:05.162Z,97767.28
2023-01-10T18:48:32.394Z,97765.72
2023-01-10T18:51:00.230Z,97762.41
2023-01-10T18:53:27.184Z,97761.63
2023-01-10T18:55:55.154Z,97758.28
2023-01-10T18:58:26.199Z,97768.66
2023-01-10T19:00:53.563Z,97770.41
2023-01-10T19:03:20.228Z,97762.59
2023-01-10T19:05:46.751Z,97769.59
2023-01-10T19:08:14.080Z,97770.50
2023-01-10T19:11:11.411Z,97766.19
2023-01-10T19:13:31.667Z,97755.88
2023-01-10T19:16:37.791Z,97764.59
2023-01-10T19:19:06.729Z,97763.72
2023-01-10T19:21:34.724Z,97757.75
2023-01-10T19:24:04.650Z,97761.28
2023-01-10T19:26:31.471Z,97764.00
2023-01-10T19:28:58.104Z,97767.50
2023-01-10T19:31:27.517Z,97768.47
2023-01-10T19:33:54.982Z,97772.81
2023-01-10T19:36:22.977Z,97758.97
2023-01-10T19:38:54.761Z,97761.69
2023-01-10T19:41:21.379Z,97760.91
2023-01-10T19:43:47.852Z,97751.50
2023-01-10T19:46:14.545Z,97755.03
2023-01-10T19:48:41.137Z,97749.94
2023-01-10T19:51:09.419Z,97743.06
2023-01-10T19:53:37.238Z,97746.50
2023-01-10T19:56:07.293Z,97738.72
2023-01-10T19:58:33.709Z,97738.78
2023-01-10T20:01:12.149Z,97737.97
2023-01-10T20:03:42.252Z,97738.09
2023-01-10T20:06:11.000Z,97731.25
2023-01-10T20:08:37.582Z,97727.81
2023-01-10T20:11:05.834Z,97731.38
2023-01-10T20:13:33.865Z,97724.50
2023-01-10T20:16:00.404Z,97717.66
2023-01-10T20:18:27.722Z,97726.34
2023-01-10T20:20:54.277Z,97717.81
2023-01-10T20:23:22.553Z,97723.03
2023-01-10T20:25:58.004Z,97714.47
2023-01-10T20:28:26.134Z,97709.31
2023-01-10T20:30:53.535Z,97712.78
2023-01-10T20:33:21.864Z,97706.81
2023-01-10T20:36:15.992Z,97705.97
2023-01-10T20:38:42.959Z,97699.97
2023-01-10T20:41:16.422Z,97700.91
2023-01-10T20:43:43.628Z,97705.19
2023-01-10T20:46:16.031Z,97706.09
2023-01-10T20:48:42.878Z,97712.28
2023-01-10T20:51:19.349Z,97703.75
2023-01-10T20:53:46.950Z,97705.50
2023-01-10T20:56:16.767Z,97705.53
2023-01-10T20:58:43.407Z,97708.19
2023-01-10T21:01:12.456Z,97699.63
2023-01-10T21:03:43.184Z,97704.03
2023-01-10T21:06:09.926Z,97694.63
2023-01-10T21:08:37.515Z,97698.97
2023-01-10T21:11:05.865Z,97693.03
2023-01-10T21:13:34.871Z,97695.59
2023-01-10T21:16:02.915Z,97686.19
2023-01-10T21:18:35.395Z,97689.66
2023-01-10T21:21:01.916Z,97689.72
2023-01-10T21:23:29.495Z,97688.06
2023-01-10T21:26:02.505Z,97688.16
2023-01-10T21:28:29.692Z,97682.13
2023-01-10T21:30:56.232Z,97687.31
2023-01-10T21:33:22.726Z,97683.88
2023-01-10T21:35:53.928Z,97683.91
2023-01-10T21:38:21.280Z,97676.22
2023-01-10T21:40:47.905Z,97676.25
2023-01-10T21:43:14.596Z,97675.38
2023-01-10T21:45:41.168Z,97683.13
2023-01-10T21:48:07.653Z,97679.72
2023-01-10T21:50:34.148Z,97674.59
2023-01-10T21:53:01.296Z,97669.47
2023-01-10T21:55:28.289Z,97678.94
2023-01-10T21:57:55.079Z,97675.47
2023-01-10T22:00:21.834Z,97668.59
2023-01-10T22:02:48.355Z,97672.03
2023-01-10T22:05:15.074Z,97665.22
2023-01-10T22:07:41.658Z,97662.66
2023-01-10T22:10:09.265Z,97649.72
2023-01-10T22:12:36.711Z,97650.63
2023-01-10T22:15:03.771Z,97655.78
2023-01-10T22:17:30.392Z,97656.72
2023-01-10T22:19:57.016Z,97653.28
2023-01-10T22:22:23.596Z,97661.94
2023-01-10T22:24:50.092Z,97657.72
2023-01-10T22:27:17.030Z,97660.28
2023-01-10T22:29:43.626Z,97662.91
2023-01-10T22:32:10.180Z,97660.31
2023-01-10T22:34:36.815Z,97654.31
2023-01-10T22:37:03.605Z,97656.03
2023-01-10T22:39:30.223Z,97644.03
2023-01-10T22:41:56.756Z,97639.75
2023-01-10T22:44:26.299Z,97632.03
2023-01-10T22:46:54.801Z,97627.81
2023-01-10T22:49:21.992Z,97622.66
2023-01-10T22:51:48.775Z,97622.69
2023-01-10T22:54:16.309Z,97619.28
2023-01-10T22:56:44.173Z,97620.97
2023-01-10T22:59:11.391Z,97622.72
2023-01-10T23:01:38.319Z,97622.72
2023-01-10T23:04:05.258Z,97622.72
2023-01-10T23:06:31.932Z,97621.06
2023-01-10T23:08:59.413Z,97622.78
2023-01-10T23:11:25.956Z,97609.06
2023-01-10T23:13:52.477Z,97609.91
2023-01-10T23:16:28.655Z,97611.66
2023-01-10T23:18:57.087Z,97616.00
2023-01-10T23:21:24.430Z,97617.75
2023-01-10T23:23:50.937Z,97609.97
2023-01-10T23:26:18.082Z,97607.41
2023-01-10T23:28:47.483Z,97603.97
2023-01-10T23:31:16.529Z,97597.13
2023-01-10T23:33:43.040Z,97600.56
2023-01-10T23:36:10.511Z,97600.56
2023-01-10T23:38:37.132Z,97599.72
2023-01-10T23:41:03.675Z,97597.13
2023-01-10T23:43:30.700Z,97590.28
2023-01-10T23:45:57.544Z,97583.47
2023-01-10T23:48:24.173Z,97574.94
2023-01-10T23:50:51.107Z,97570.63
2023-01-10T23:53:18.391Z,97568.88
2023-01-10T23:55:45.096Z,97570.66
2023-01-10T23:58:11.654Z,97567.25
